Hunts Point, Washington
Current Conditions -  °F | °C
As of 12:53 PM on Wednesday 17 Dec 2014 (Local Time) from KBFI Reporting Station
Overcast Overcast  
Wind Chill: 51°   Ceiling: 6500
Heat Index: 51°   Visibility: 10mi
Dew Point: 41°   Wind: 0mph
Humidity: 68%   Direction: NA
Pressure: 29.84"   Gusts: NA
Location:  47.6186°N, 122.204°W
Report Text: KBFI 172053Z 00000KT 10SM OVC065 11/05 A2984 RMK AO2 SLP103 T01060050 50001
Loading
Personal Weather Stations






























Interactive Weather Map New forecast layout! Learn more

10-Day Weather Forecast

Advertisements
Track Severe Weather on mobile